sensor_id;sensor_type;location;lat;lon;timestamp;pressure;altitude;pressure_sealevel;temperature;humidity
15529;BME280;7866;52.280;9.500;2023-08-30T00:03:15;99626.97;;;14.76;82.17
15529;BME280;7866;52.280;9.500;2023-08-30T00:08:16;99621.81;;;14.74;82.26
15529;BME280;7866;52.280;9.500;2023-08-30T00:13:21;99618.09;;;14.69;81.65
15529;BME280;7866;52.280;9.500;2023-08-30T00:18:22;99612.13;;;14.60;82.58
15529;BME280;7866;52.280;9.500;2023-08-30T00:23:24;99613.41;;;14.44;82.90
15529;BME280;7866;52.280;9.500;2023-08-30T00:28:27;99618.34;;;14.61;83.03
15529;BME280;7866;52.280;9.500;2023-08-30T00:33:29;99618.34;;;14.61;82.87
15529;BME280;7866;52.280;9.500;2023-08-30T00:38:33;99617.47;;;14.67;83.09
15529;BME280;7866;52.280;9.500;2023-08-30T00:43:36;99615.19;;;14.70;82.72
15529;BME280;7866;52.280;9.500;2023-08-30T00:48:38;99608.00;;;14.58;82.75
15529;BME280;7866;52.280;9.500;2023-08-30T00:53:40;99610.50;;;14.52;83.02
15529;BME280;7866;52.280;9.500;2023-08-30T00:58:43;99607.53;;;14.67;82.97
15529;BME280;7866;52.280;9.500;2023-08-30T01:03:44;99597.22;;;14.58;82.95
15529;BME280;7866;52.280;9.500;2023-08-30T01:08:46;99600.25;;;14.68;82.69
15529;BME280;7866;52.280;9.500;2023-08-30T01:13:53;99594.91;;;14.61;82.65
15529;BME280;7866;52.280;9.500;2023-08-30T01:18:59;99592.88;;;14.50;83.26
15529;BME280;7866;52.280;9.500;2023-08-30T01:24:03;99593.50;;;14.45;83.39
15529;BME280;7866;52.280;9.500;2023-08-30T01:29:11;99588.09;;;14.45;83.64
15529;BME280;7866;52.280;9.500;2023-08-30T01:34:15;99584.38;;;14.40;83.71
15529;BME280;7866;52.280;9.500;2023-08-30T01:39:18;99578.16;;;14.39;83.72
15529;BME280;7866;52.280;9.500;2023-08-30T01:44:22;99568.22;;;14.40;83.84
15529;BME280;7866;52.280;9.500;2023-08-30T01:49:24;99576.75;;;14.37;84.60
15529;BME280;7866;52.280;9.500;2023-08-30T01:54:27;99573.78;;;14.58;83.91
15529;BME280;7866;52.280;9.500;2023-08-30T01:59:31;99576.00;;;14.68;83.29
15529;BME280;7866;52.280;9.500;2023-08-30T02:04:33;99564.34;;;14.81;82.84
15529;BME280;7866;52.280;9.500;2023-08-30T02:09:39;99571.56;;;14.87;82.61
15529;BME280;7866;52.280;9.500;2023-08-30T02:14:45;99570.84;;;15.05;81.55
15529;BME280;7866;52.280;9.500;2023-08-30T02:19:48;99572.50;;;15.06;81.80
15529;BME280;7866;52.280;9.500;2023-08-30T02:24:53;99561.88;;;15.11;82.44
15529;BME280;7866;52.280;9.500;2023-08-30T02:29:56;99558.13;;;15.12;82.12
15529;BME280;7866;52.280;9.500;2023-08-30T02:34:58;99557.75;;;15.08;82.45
15529;BME280;7866;52.280;9.500;2023-08-30T02:40:00;99553.91;;;14.91;82.72
15529;BME280;7866;52.280;9.500;2023-08-30T02:45:05;99551.88;;;14.86;82.85
15529;BME280;7866;52.280;9.500;2023-08-30T02:50:07;99542.56;;;14.82;83.54
15529;BME280;7866;52.280;9.500;2023-08-30T02:55:09;99541.63;;;14.63;83.74
15529;BME280;7866;52.280;9.500;2023-08-30T03:00:13;99543.47;;;14.63;84.21
15529;BME280;7866;52.280;9.500;2023-08-30T03:05:15;99538.53;;;14.60;84.03
15529;BME280;7866;52.280;9.500;2023-08-30T03:10:17;99543.47;;;14.63;84.28
15529;BME280;7866;52.280;9.500;2023-08-30T03:15:21;99547.81;;;14.64;84.11
15529;BME280;7866;52.280;9.500;2023-08-30T03:20:22;99553.75;;;14.79;82.96
15529;BME280;7866;52.280;9.500;2023-08-30T03:25:24;99548.91;;;14.94;83.03
15529;BME280;7866;52.280;9.500;2023-08-30T03:30:27;99541.78;;;15.07;81.27
15529;BME280;7866;52.280;9.500;2023-08-30T03:35:28;99543.38;;;15.14;80.83
15529;BME280;7866;52.280;9.500;2023-08-30T03:40:34;99555.66;;;15.10;80.62
15529;BME280;7866;52.280;9.500;2023-08-30T03:45:37;99537.56;;;15.17;80.16
15529;BME280;7866;52.280;9.500;2023-08-30T03:50:39;99533.09;;;15.05;80.44
15529;BME280;7866;52.280;9.500;2023-08-30T03:55:41;99531.03;;;15.00;80.57
15529;BME280;7866;52.280;9.500;2023-08-30T04:00:44;99526.03;;;15.03;80.74
15529;BME280;7866;52.280;9.500;2023-08-30T04:05:45;99524.38;;;15.02;80.42
15529;BME280;7866;52.280;9.500;2023-08-30T04:10:47;99508.59;;;15.06;80.41
15529;BME280;7866;52.280;9.500;2023-08-30T04:15:51;99508.94;;;15.16;79.90
15529;BME280;7866;52.280;9.500;2023-08-30T04:20:53;99507.22;;;15.22;79.43
15529;BME280;7866;52.280;9.500;2023-08-30T04:25:54;99502.44;;;15.24;79.41
15529;BME280;7866;52.280;9.500;2023-08-30T04:30:57;99500.50;;;15.31;78.74
15529;BME280;7866;52.280;9.500;2023-08-30T04:35:59;99497.75;;;15.38;78.45
15529;BME280;7866;52.280;9.500;2023-08-30T04:41:02;99498.16;;;15.41;78.04
15529;BME280;7866;52.280;9.500;2023-08-30T04:46:05;99504.13;;;15.43;78.25
15529;BME280;7866;52.280;9.500;2023-08-30T04:51:07;99508.66;;;15.49;77.95
15529;BME280;7866;52.280;9.500;2023-08-30T04:56:12;99504.22;;;15.55;77.58
15529;BME280;7866;52.280;9.500;2023-08-30T05:01:15;99505.22;;;15.61;77.53
15529;BME280;7866;52.280;9.500;2023-08-30T05:06:17;99505.56;;;15.71;77.23
15529;BME280;7866;52.280;9.500;2023-08-30T05:11:18;99503.47;;;15.73;77.12
15529;BME280;7866;52.280;9.500;2023-08-30T05:16:21;99502.66;;;15.72;77.26
15529;BME280;7866;52.280;9.500;2023-08-30T05:21:23;99507.06;;;15.67;77.38
15529;BME280;7866;52.280;9.500;2023-08-30T05:26:24;99518.50;;;15.62;78.04
15529;BME280;7866;52.280;9.500;2023-08-30T05:31:27;99508.53;;;15.63;77.68
15529;BME280;7866;52.280;9.500;2023-08-30T05:36:29;99499.44;;;15.57;78.14
15529;BME280;7866;52.280;9.500;2023-08-30T05:41:31;99504.41;;;15.60;78.34
15529;BME280;7866;52.280;9.500;2023-08-30T05:46:34;99508.97;;;15.60;78.63
15529;BME280;7866;52.280;9.500;2023-08-30T05:51:35;99520.97;;;15.64;78.53
15529;BME280;7866;52.280;9.500;2023-08-30T05:56:37;99519.31;;;15.63;78.33
15529;BME280;7866;52.280;9.500;2023-08-30T06:01:40;99508.94;;;15.66;78.73
15529;BME280;7866;52.280;9.500;2023-08-30T06:06:42;99506.38;;;15.71;79.02
15529;BME280;7866;52.280;9.500;2023-08-30T06:11:43;99505.13;;;15.74;79.07
15529;BME280;7866;52.280;9.500;2023-08-30T06:16:46;99486.84;;;15.76;78.81
15529;BME280;7866;52.280;9.500;2023-08-30T06:21:49;99495.53;;;15.78;78.52
15529;BME280;7866;52.280;9.500;2023-08-30T06:26:50;99501.47;;;15.68;79.48
15529;BME280;7866;52.280;9.500;2023-08-30T06:31:55;99503.88;;;15.76;79.27
15529;BME280;7866;52.280;9.500;2023-08-30T06:36:56;99503.13;;;15.63;79.84
15529;BME280;7866;52.280;9.500;2023-08-30T06:41:58;99501.22;;;15.70;79.57
15529;BME280;7866;52.280;9.500;2023-08-30T06:47:01;99492.38;;;15.81;79.47
15529;BME280;7866;52.280;9.500;2023-08-30T06:52:03;99489.09;;;15.97;79.44
15529;BME280;7866;52.280;9.500;2023-08-30T06:57:05;99484.44;;;16.05;79.12
15529;BME280;7866;52.280;9.500;2023-08-30T07:02:08;99478.19;;;16.22;78.25
15529;BME280;7866;52.280;9.500;2023-08-30T07:07:11;99488.09;;;16.29;78.36
15529;BME280;7866;52.280;9.500;2023-08-30T07:12:13;99480.75;;;16.36;78.08
15529;BME280;7866;52.280;9.500;2023-08-30T07:17:16;99471.84;;;16.47;78.17
15529;BME280;7866;52.280;9.500;2023-08-30T07:22:18;99460.97;;;16.84;77.65
15529;BME280;7866;52.280;9.500;2023-08-30T07:27:20;99455.44;;;16.90;76.90
15529;BME280;7866;52.280;9.500;2023-08-30T07:32:23;99462.50;;;17.03;76.07
15529;BME280;7866;52.280;9.500;2023-08-30T07:37:25;99463.16;;;17.52;75.77
15529;BME280;7866;52.280;9.500;2023-08-30T07:42:27;99457.22;;;17.67;74.62
15529;BME280;7866;52.280;9.500;2023-08-30T07:47:30;99461.38;;;17.81;74.26
15529;BME280;7866;52.280;9.500;2023-08-30T07:52:31;99454.31;;;17.80;74.54
15529;BME280;7866;52.280;9.500;2023-08-30T07:57:33;99457.91;;;17.97;74.21
15529;BME280;7866;52.280;9.500;2023-08-30T08:02:36;99462.56;;;18.26;73.56
15529;BME280;7866;52.280;9.500;2023-08-30T08:07:38;99458.78;;;18.27;73.76
15529;BME280;7866;52.280;9.500;2023-08-30T08:12:42;99468.72;;;18.50;72.88
15529;BME280;7866;52.280;9.500;2023-08-30T08:17:47;99454.97;;;18.68;72.48
15529;BME280;7866;52.280;9.500;2023-08-30T08:22:50;99460.25;;;18.75;72.91
15529;BME280;7866;52.280;9.500;2023-08-30T08:27:51;99455.59;;;19.20;71.53
15529;BME280;7866;52.280;9.500;2023-08-30T08:32:54;99450.56;;;19.29;71.61
15529;BME280;7866;52.280;9.500;2023-08-30T08:37:56;99434.78;;;19.26;71.70
15529;BME280;7866;52.280;9.500;2023-08-30T08:42:57;99444.50;;;19.39;71.80
15529;BME280;7866;52.280;9.500;2023-08-30T08:48:03;99430.91;;;19.22;71.14
15529;BME280;7866;52.280;9.500;2023-08-30T08:53:05;99436.03;;;19.35;70.86
15529;BME280;7866;52.280;9.500;2023-08-30T08:58:07;99438.31;;;19.43;70.36
15529;BME280;7866;52.280;9.500;2023-08-30T09:03:10;99441.03;;;19.43;70.20
15529;BME280;7866;52.280;9.500;2023-08-30T09:08:13;99449.41;;;19.42;70.67
15529;BME280;7866;52.280;9.500;2023-08-30T09:13:15;99447.19;;;19.56;70.13
15529;BME280;7866;52.280;9.500;2023-08-30T09:18:19;99446.53;;;19.49;69.94
15529;BME280;7866;52.280;9.500;2023-08-30T09:23:21;99453.97;;;19.58;69.76
15529;BME280;7866;52.280;9.500;2023-08-30T09:28:24;99450.97;;;19.93;69.69
15529;BME280;7866;52.280;9.500;2023-08-30T09:33:31;99450.53;;;20.24;69.17
15529;BME280;7866;52.280;9.500;2023-08-30T09:38:33;99448.75;;;20.12;69.71
15529;BME280;7866;52.280;9.500;2023-08-30T09:43:35;99449.03;;;20.11;69.22
15529;BME280;7866;52.280;9.500;2023-08-30T09:48:38;99436.84;;;20.18;68.48
15529;BME280;7866;52.280;9.500;2023-08-30T09:53:43;99435.47;;;19.94;68.96
15529;BME280;7866;52.280;9.500;2023-08-30T09:58:46;99428.47;;;20.20;68.90
15529;BME280;7866;52.280;9.500;2023-08-30T10:03:50;99440.66;;;20.17;68.46
15529;BME280;7866;52.280;9.500;2023-08-30T10:08:53;99434.63;;;20.59;67.06
15529;BME280;7866;52.280;9.500;2023-08-30T10:13:57;99429.19;;;20.91;66.38
15529;BME280;7866;52.280;9.500;2023-08-30T10:19:02;99427.34;;;21.02;65.67
15529;BME280;7866;52.280;9.500;2023-08-30T10:24:07;99424.63;;;21.02;64.61
15529;BME280;7866;52.280;9.500;2023-08-30T10:29:11;99418.81;;;20.88;64.50
15529;BME280;7866;52.280;9.500;2023-08-30T10:34:16;99425.28;;;20.82;64.85
15529;BME280;7866;52.280;9.500;2023-08-30T10:39:19;99421.66;;;20.99;65.14
15529;BME280;7866;52.280;9.500;2023-08-30T10:44:22;99412.16;;;21.38;63.78
15529;BME280;7866;52.280;9.500;2023-08-30T10:49:25;99417.34;;;20.76;64.90
15529;BME280;7866;52.280;9.500;2023-08-30T10:54:36;99405.84;;;21.01;65.09
15529;BME280;7866;52.280;9.500;2023-08-30T10:59:38;99397.06;;;20.94;64.35
15529;BME280;7866;52.280;9.500;2023-08-30T11:04:42;99399.75;;;20.83;64.19
15529;BME280;7866;52.280;9.500;2023-08-30T11:09:44;99393.00;;;20.91;64.75
15529;BME280;7866;52.280;9.500;2023-08-30T11:14:46;99381.91;;;21.35;63.84
15529;BME280;7866;52.280;9.500;2023-08-30T11:19:50;99371.50;;;21.79;62.32
15529;BME280;7866;52.280;9.500;2023-08-30T11:24:52;99366.19;;;21.57;63.25
15529;BME280;7866;52.280;9.500;2023-08-30T11:29:58;99361.16;;;21.92;60.93
15529;BME280;7866;52.280;9.500;2023-08-30T11:35:02;99353.66;;;22.24;60.51
15529;BME280;7866;52.280;9.500;2023-08-30T11:40:05;99344.94;;;22.22;60.01
15529;BME280;7866;52.280;9.500;2023-08-30T11:45:08;99333.91;;;22.02;60.32
15529;BME280;7866;52.280;9.500;2023-08-30T11:50:11;99336.19;;;22.15;60.23
15529;BME280;7866;52.280;9.500;2023-08-30T11:55:13;99332.44;;;21.58;62.13
15529;BME280;7866;52.280;9.500;2023-08-30T12:00:18;99327.75;;;21.06;62.13
15529;BME280;7866;52.280;9.500;2023-08-30T12:05:21;99322.47;;;20.89;62.76
15529;BME280;7866;52.280;9.500;2023-08-30T12:10:23;99324.59;;;20.82;63.48
15529;BME280;7866;52.280;9.500;2023-08-30T12:15:25;99314.78;;;20.81;63.91
15529;BME280;7866;52.280;9.500;2023-08-30T12:20:29;99314.63;;;20.56;65.25
15529;BME280;7866;52.280;9.500;2023-08-30T12:25:31;99318.47;;;20.60;65.48
15529;BME280;7866;52.280;9.500;2023-08-30T12:30:34;99301.31;;;20.32;65.72
15529;BME280;7866;52.280;9.500;2023-08-30T12:35:37;99301.06;;;20.34;65.75
15529;BME280;7866;52.280;9.500;2023-08-30T12:40:38;99300.59;;;20.74;65.22
15529;BME280;7866;52.280;9.500;2023-08-30T12:45:40;99292.50;;;21.27;62.93
15529;BME280;7866;52.280;9.500;2023-08-30T12:50:45;99277.50;;;21.29;61.82
15529;BME280;7866;52.280;9.500;2023-08-30T12:55:47;99288.28;;;21.61;60.94
15529;BME280;7866;52.280;9.500;2023-08-30T13:00:49;99280.91;;;21.57;61.23
15529;BME280;7866;52.280;9.500;2023-08-30T13:05:52;99283.03;;;21.39;62.72
15529;BME280;7866;52.280;9.500;2023-08-30T13:10:53;99268.84;;;21.32;62.68
15529;BME280;7866;52.280;9.500;2023-08-30T13:15:55;99274.66;;;21.04;63.13
15529;BME280;7866;52.280;9.500;2023-08-30T13:20:58;99267.59;;;21.03;63.29
15529;BME280;7866;52.280;9.500;2023-08-30T13:25:59;99264.19;;;20.85;64.09
15529;BME280;7866;52.280;9.500;2023-08-30T13:31:01;99253.50;;;20.74;65.30
15529;BME280;7866;52.280;9.500;2023-08-30T13:36:04;99259.63;;;20.54;67.11
15529;BME280;7866;52.280;9.500;2023-08-30T13:41:06;99261.34;;;20.33;66.59
15529;BME280;7866;52.280;9.500;2023-08-30T13:46:08;99257.50;;;20.61;66.49
15529;BME280;7866;52.280;9.500;2023-08-30T13:51:11;99259.66;;;20.96;64.66
15529;BME280;7866;52.280;9.500;2023-08-30T13:56:12;99245.75;;;20.98;64.74
15529;BME280;7866;52.280;9.500;2023-08-30T14:01:14;99242.47;;;20.90;66.68
15529;BME280;7866;52.280;9.500;2023-08-30T14:06:18;99240.69;;;21.16;65.21
15529;BME280;7866;52.280;9.500;2023-08-30T14:11:19;99239.81;;;21.06;64.00
15529;BME280;7866;52.280;9.500;2023-08-30T14:16:21;99230.22;;;20.88;66.45
15529;BME280;7866;52.280;9.500;2023-08-30T14:21:24;99234.25;;;20.80;67.65
15529;BME280;7866;52.280;9.500;2023-08-30T14:26:26;99247.25;;;20.73;68.25
15529;BME280;7866;52.280;9.500;2023-08-30T14:31:28;99261.56;;;20.26;71.76
15529;BME280;7866;52.280;9.500;2023-08-30T14:36:31;99267.72;;;19.84;72.81
15529;BME280;7866;52.280;9.500;2023-08-30T14:41:33;99265.13;;;19.51;73.34
15529;BME280;7866;52.280;9.500;2023-08-30T14:46:36;99264.50;;;19.22;74.50
15529;BME280;7866;52.280;9.500;2023-08-30T14:51:39;99279.38;;;18.97;75.75
15529;BME280;7866;52.280;9.500;2023-08-30T14:56:41;99284.47;;;18.93;76.49
15529;BME280;7866;52.280;9.500;2023-08-30T15:01:43;99282.69;;;18.82;76.97
15529;BME280;7866;52.280;9.500;2023-08-30T15:06:46;99284.50;;;18.60;78.03
15529;BME280;7866;52.280;9.500;2023-08-30T15:11:48;99288.28;;;18.42;79.21
15529;BME280;7866;52.280;9.500;2023-08-30T15:16:49;99280.06;;;18.20;79.89
15529;BME280;7866;52.280;9.500;2023-08-30T15:21:52;99302.47;;;18.15;80.06
15529;BME280;7866;52.280;9.500;2023-08-30T15:26:54;99296.22;;;18.15;80.66
15529;BME280;7866;52.280;9.500;2023-08-30T15:31:55;99294.28;;;17.98;80.90
15529;BME280;7866;52.280;9.500;2023-08-30T15:36:58;99299.25;;;18.02;81.02
15529;BME280;7866;52.280;9.500;2023-08-30T15:42:00;99288.50;;;17.78;80.60
15529;BME280;7866;52.280;9.500;2023-08-30T15:47:02;99304.53;;;17.68;80.54
15529;BME280;7866;52.280;9.500;2023-08-30T15:52:05;99307.56;;;17.31;81.55
15529;BME280;7866;52.280;9.500;2023-08-30T15:57:07;99300.69;;;16.77;83.90
15529;BME280;7866;52.280;9.500;2023-08-30T16:02:08;99299.03;;;16.64;84.10
15529;BME280;7866;52.280;9.500;2023-08-30T16:07:11;99296.63;;;16.67;86.07
15529;BME280;7866;52.280;9.500;2023-08-30T16:12:13;99289.84;;;16.65;85.78
15529;BME280;7866;52.280;9.500;2023-08-30T16:17:15;99287.94;;;16.54;86.25
15529;BME280;7866;52.280;9.500;2023-08-30T16:22:19;99280.44;;;16.44;85.97
15529;BME280;7866;52.280;9.500;2023-08-30T16:27:21;99278.28;;;16.34;86.83
15529;BME280;7866;52.280;9.500;2023-08-30T16:32:22;99287.44;;;16.21;88.22
15529;BME280;7866;52.280;9.500;2023-08-30T16:37:25;99279.63;;;16.01;88.87
15529;BME280;7866;52.280;9.500;2023-08-30T16:42:27;99293.38;;;16.00;89.52
15529;BME280;7866;52.280;9.500;2023-08-30T16:47:28;99287.72;;;16.01;88.94
15529;BME280;7866;52.280;9.500;2023-08-30T16:52:31;99281.19;;;16.09;88.65
15529;BME280;7866;52.280;9.500;2023-08-30T16:57:33;99295.38;;;16.05;88.27
15529;BME280;7866;52.280;9.500;2023-08-30T17:02:35;99295.00;;;16.01;88.27
15529;BME280;7866;52.280;9.500;2023-08-30T17:07:38;99294.16;;;15.89;88.79
15529;BME280;7866;52.280;9.500;2023-08-30T17:12:40;99302.06;;;15.72;88.75
15529;BME280;7866;52.280;9.500;2023-08-30T17:17:42;99297.50;;;15.72;88.55
15529;BME280;7866;52.280;9.500;2023-08-30T17:22:45;99296.06;;;15.70;88.59
15529;BME280;7866;52.280;9.500;2023-08-30T17:27:46;99304.47;;;15.80;89.25
15529;BME280;7866;52.280;9.500;2023-08-30T17:32:48;99294.28;;;15.94;89.22
15529;BME280;7866;52.280;9.500;2023-08-30T17:37:51;99287.06;;;15.76;89.29
15529;BME280;7866;52.280;9.500;2023-08-30T17:42:53;99295.16;;;15.76;90.22
15529;BME280;7866;52.280;9.500;2023-08-30T17:47:54;99291.63;;;15.75;90.36
15529;BME280;7866;52.280;9.500;2023-08-30T17:52:57;99271.13;;;15.86;90.15
15529;BME280;7866;52.280;9.500;2023-08-30T17:57:59;99285.31;;;15.63;90.25
15529;BME280;7866;52.280;9.500;2023-08-30T18:03:00;99282.81;;;15.50;90.44
15529;BME280;7866;52.280;9.500;2023-08-30T18:08:05;99290.22;;;15.55;90.50
15529;BME280;7866;52.280;9.500;2023-08-30T18:13:07;99276.44;;;15.44;91.47
15529;BME280;7866;52.280;9.500;2023-08-30T18:18:08;99278.53;;;15.42;91.23
15529;BME280;7866;52.280;9.500;2023-08-30T18:23:11;99292.56;;;15.33;91.95
15529;BME280;7866;52.280;9.500;2023-08-30T18:28:15;99265.53;;;15.21;91.81
15529;BME280;7866;52.280;9.500;2023-08-30T18:33:16;99278.41;;;15.19;92.00
15529;BME280;7866;52.280;9.500;2023-08-30T18:38:19;99283.22;;;15.17;91.17
15529;BME280;7866;52.280;9.500;2023-08-30T18:43:21;99247.97;;;15.12;90.40
15529;BME280;7866;52.280;9.500;2023-08-30T18:48:23;99269.25;;;15.38;90.50
15529;BME280;7866;52.280;9.500;2023-08-30T18:53:26;99282.06;;;15.43;90.20
15529;BME280;7866;52.280;9.500;2023-08-30T18:58:27;99303.19;;;15.46;90.16
15529;BME280;7866;52.280;9.500;2023-08-30T19:03:29;99310.63;;;15.14;91.11
15529;BME280;7866;52.280;9.500;2023-08-30T19:08:32;99300.28;;;15.11;91.01
15529;BME280;7866;52.280;9.500;2023-08-30T19:13:34;99296.16;;;15.08;91.09
15529;BME280;7866;52.280;9.500;2023-08-30T19:18:36;99298.69;;;15.03;90.77
15529;BME280;7866;52.280;9.500;2023-08-30T19:23:39;99304.38;;;14.95;91.81
15529;BME280;7866;52.280;9.500;2023-08-30T19:28:40;99308.38;;;14.92;92.18
15529;BME280;7866;52.280;9.500;2023-08-30T19:33:42;99299.06;;;14.88;90.79
15529;BME280;7866;52.280;9.500;2023-08-30T19:38:45;99310.88;;;14.87;91.18
15529;BME280;7866;52.280;9.500;2023-08-30T19:43:46;99310.88;;;14.87;91.56
15529;BME280;7866;52.280;9.500;2023-08-30T19:48:54;99326.66;;;14.84;91.82
15529;BME280;7866;52.280;9.500;2023-08-30T19:53:58;99336.06;;;14.99;92.25
15529;BME280;7866;52.280;9.500;2023-08-30T19:58:59;99350.88;;;14.90;91.93
15529;BME280;7866;52.280;9.500;2023-08-30T20:04:01;99355.22;;;14.91;91.67
15529;BME280;7866;52.280;9.500;2023-08-30T20:09:05;99347.53;;;14.95;91.55
15529;BME280;7866;52.280;9.500;2023-08-30T20:14:07;99367.84;;;14.97;91.21
15529;BME280;7866;52.280;9.500;2023-08-30T20:19:09;99360.13;;;15.01;91.87
15529;BME280;7866;52.280;9.500;2023-08-30T20:24:15;99364.59;;;14.89;92.21
15529;BME280;7866;52.280;9.500;2023-08-30T20:29:17;99369.31;;;14.93;92.78
15529;BME280;7866;52.280;9.500;2023-08-30T20:34:19;99367.41;;;15.00;92.19
15529;BME280;7866;52.280;9.500;2023-08-30T20:39:22;99355.59;;;14.95;91.61
15529;BME280;7866;52.280;9.500;2023-08-30T20:44:23;99357.72;;;14.93;92.12
15529;BME280;7866;52.280;9.500;2023-08-30T20:49:25;99348.56;;;14.94;93.17
15529;BME280;7866;52.280;9.500;2023-08-30T20:54:28;99359.88;;;14.84;93.13
15529;BME280;7866;52.280;9.500;2023-08-30T20:59:30;99362.19;;;14.81;92.59
15529;BME280;7866;52.280;9.500;2023-08-30T21:04:32;99355.19;;;14.73;91.33
15529;BME280;7866;52.280;9.500;2023-08-30T21:09:35;99367.38;;;14.75;91.53
15529;BME280;7866;52.280;9.500;2023-08-30T21:14:37;99365.09;;;14.79;91.39
15529;BME280;7866;52.280;9.500;2023-08-30T21:19:38;99379.59;;;14.78;92.20
15529;BME280;7866;52.280;9.500;2023-08-30T21:24:41;99379.50;;;14.66;91.66
15529;BME280;7866;52.280;9.500;2023-08-30T21:29:43;99376.38;;;14.69;92.22
15529;BME280;7866;52.280;9.500;2023-08-30T21:34:44;99369.53;;;14.67;92.89
15529;BME280;7866;52.280;9.500;2023-08-30T21:39:48;99371.94;;;14.75;92.23
15529;BME280;7866;52.280;9.500;2023-08-30T21:44:49;99365.03;;;14.61;92.09
15529;BME280;7866;52.280;9.500;2023-08-30T21:49:51;99377.47;;;14.62;92.77
15529;BME280;7866;52.280;9.500;2023-08-30T21:54:54;99376.03;;;14.59;92.55
15529;BME280;7866;52.280;9.500;2023-08-30T21:59:56;99377.47;;;14.62;94.08
15529;BME280;7866;52.280;9.500;2023-08-30T22:04:57;99380.97;;;14.62;93.09
15529;BME280;7866;52.280;9.500;2023-08-30T22:10:00;99379.94;;;14.63;93.06
15529;BME280;7866;52.280;9.500;2023-08-30T22:15:03;99390.78;;;14.57;93.49
15529;BME280;7866;52.280;9.500;2023-08-30T22:20:07;99382.06;;;14.54;93.53
15529;BME280;7866;52.280;9.500;2023-08-30T22:25:11;99383.72;;;14.56;93.22
15529;BME280;7866;52.280;9.500;2023-08-30T22:30:14;99402.16;;;14.59;93.42
15529;BME280;7866;52.280;9.500;2023-08-30T22:35:16;99398.59;;;14.65;93.47
15529;BME280;7866;52.280;9.500;2023-08-30T22:40:19;99401.09;;;14.60;92.63
15529;BME280;7866;52.280;9.500;2023-08-30T22:45:21;99406.56;;;14.53;92.70
15529;BME280;7866;52.280;9.500;2023-08-30T22:50:23;99416.09;;;14.49;92.90
15529;BME280;7866;52.280;9.500;2023-08-30T22:55:26;99394.31;;;14.50;93.39
15529;BME280;7866;52.280;9.500;2023-08-30T23:00:27;99409.44;;;14.51;93.89
15529;BME280;7866;52.280;9.500;2023-08-30T23:05:29;99401.69;;;14.30;93.86
15529;BME280;7866;52.280;9.500;2023-08-30T23:10:32;99406.25;;;14.29;93.71
15529;BME280;7866;52.280;9.500;2023-08-30T23:15:34;99403.75;;;14.28;94.14
15529;BME280;7866;52.280;9.500;2023-08-30T23:20:35;99404.84;;;14.20;94.02
15529;BME280;7866;52.280;9.500;2023-08-30T23:25:39;99407.78;;;14.12;94.00
15529;BME280;7866;52.280;9.500;2023-08-30T23:30:41;99403.63;;;14.16;94.44
15529;BME280;7866;52.280;9.500;2023-08-30T23:35:42;99410.09;;;14.09;94.17
15529;BME280;7866;52.280;9.500;2023-08-30T23:40:47;99413.81;;;14.08;94.08
15529;BME280;7866;52.280;9.500;2023-08-30T23:45:49;99407.19;;;14.10;94.34
15529;BME280;7866;52.280;9.500;2023-08-30T23:50:52;99420.88;;;14.09;94.67
15529;BME280;7866;52.280;9.500;2023-08-30T23:55:55;99424.16;;;14.11;94.57
